Wetterdaten: Woche 12.10.09 - 18.10.09 (KW42)
Datum Zeit Temp. Innen Temp. Aussen UV X Diff Temp. Feuchte Inne Feuchte Auss Sonnenschein Luftdruck Regen ab 0,1 Wind Sonnenschein Windben
12.10.2009 00:00 17,6 C 10,3 C 0,0 UV-I 0,0 C 65 % 93 % 0 % 1008,2 hPa 0,0 l/m 1,1 km/h (1 Bft) 0,00 h 3,2 km/h (1 Bft)
12.10.2009 01:00 17,4 C 10,1 C 0,0 UV-I 0,0 C 64 % 94 % 0 % 1008,4 hPa 0,0 l/m 1,4 km/h (1 Bft) 0,00 h 3,0 km/h (1 Bft)
12.10.2009 02:00 17,4 C 9,9 C 0,0 UV-I 0,0 C 64 % 93 % 0 % 1008,3 hPa 0,1 l/m 2,8 km/h (1 Bft) 0,00 h 5,4 km/h (1 Bft)
12.10.2009 03:00 17,2 C 9,7 C 0,0 UV-I 0,0 C 63 % 93 % 0 % 1008,5 hPa 0,0 l/m 2,6 km/h (1 Bft) 0,00 h 5,3 km/h (1 Bft)
12.10.2009 04:00 17,2 C 9,6 C 0,0 UV-I 0,0 C 62 % 92 % 0 % 1008,9 hPa 0,0 l/m 4,9 km/h (1 Bft) 0,00 h 7,9 km/h (2 Bft)
12.10.2009 05:00 17,0 C 9,5 C 0,0 UV-I 0,0 C 61 % 92 % 0 % 1009,7 hPa 0,0 l/m 4,4 km/h (1 Bft) 0,00 h 7,4 km/h (2 Bft)
12.10.2009 06:00 17,0 C 9,5 C 0,0 UV-I 0,0 C 61 % 92 % 0 % 1010,8 hPa 0,0 l/m 4,4 km/h (1 Bft) 0,00 h 7,2 km/h (2 Bft)
12.10.2009 07:00 16,8 C 9,6 C 0,0 UV-I 0,0 C 61 % 92 % 0 % 1012,3 hPa 0,0 l/m 4,9 km/h (1 Bft) 0,00 h 7,1 km/h (2 Bft)
12.10.2009 08:00 16,9 C 9,8 C 0,1 UV-I 0,0 C 62 % 90 % 0 % 1014,7 hPa 0,0 l/m 4,7 km/h (1 Bft) 0,00 h 6,5 km/h (2 Bft)
12.10.2009 09:00 17,2 C 10,0 C 0,7 UV-I 1,7 C 61 % 89 % 34 % 1017,1 hPa 0,0 l/m 4,5 km/h (1 Bft) 0,30 h 5,7 km/h (1 Bft)
12.10.2009 10:00 17,5 C 10,8 C 1,4 UV-I 4,1 C 60 % 86 % 93 % 1019,3 hPa 0,0 l/m 5,7 km/h (1 Bft) 0,63 h 7,4 km/h (2 Bft)
12.10.2009 11:00 17,8 C 12,0 C 2,1 UV-I 3,9 C 60 % 79 % 86 % 1020,6 hPa 0,0 l/m 5,6 km/h (1 Bft) 0,60 h 7,7 km/h (2 Bft)
12.10.2009 12:00 18,2 C 12,7 C 3,4 UV-I 2,7 C 58 % 73 % 75 % 1022,0 hPa 0,0 l/m 6,1 km/h (2 Bft) 0,47 h 7,8 km/h (2 Bft)
12.10.2009 13:00 18,5 C 13,6 C 7,7 UV-I 3,6 C 54 % 67 % 89 % 1022,6 hPa 0,0 l/m 6,7 km/h (2 Bft) 0,63 h 9,2 km/h (2 Bft)
12.10.2009 14:00 19,3 C 14,3 C 2,4 UV-I 3,3 C 51 % 62 % 78 % 1024,0 hPa 0,0 l/m 7,3 km/h (2 Bft) 0,43 h 11,4 km/h (2 Bft)
12.10.2009 15:00 20,0 C 14,3 C 2,2 UV-I 3,2 C 49 % 59 % 84 % 1024,9 hPa 0,0 l/m 6,6 km/h (2 Bft) 0,60 h 8,9 km/h (2 Bft)
12.10.2009 16:00 20,1 C 14,2 C 1,1 UV-I 2,2 C 47 % 60 % 62 % 1024,8 hPa 0,0 l/m 5,5 km/h (1 Bft) 0,23 h 7,0 km/h (2 Bft)
12.10.2009 17:00 19,4 C 11,9 C 0,0 UV-I 0,0 C 50 % 76 % 0 % 1024,4 hPa 0,2 l/m 2,8 km/h (1 Bft) 0,00 h 4,2 km/h (1 Bft)
12.10.2009 18:00 18,9 C 10,6 C 0,0 UV-I 0,0 C 53 % 83 % 0 % 1024,7 hPa 0,0 l/m 0,1 km/h (0 Bft) 0,00 h 0,0 km/h (0 Bft)
12.10.2009 19:00 18,5 C 9,7 C 0,0 UV-I 0,0 C 55 % 86 % 0 % 1025,0 hPa 0,0 l/m 0,0 km/h (0 Bft) 0,00 h 0,0 km/h (0 Bft)
12.10.2009 20:00 18,2 C 9,5 C 0,0 UV-I 0,0 C 56 % 87 % 0 % 1025,4 hPa 0,1 l/m 2,3 km/h (1 Bft) 0,00 h 4,2 km/h (1 Bft)
12.10.2009 21:00 18,0 C 9,8 C 0,0 UV-I 0,0 C 56 % 88 % 0 % 1026,0 hPa 0,0 l/m 1,6 km/h (1 Bft) 0,00 h 2,2 km/h (1 Bft)
12.10.2009 22:00 17,6 C 9,1 C 0,0 UV-I 0,0 C 57 % 89 % 0 % 1026,2 hPa 0,0 l/m 0,9 km/h (0 Bft) 0,00 h 2,6 km/h (1 Bft)
12.10.2009 23:00 17,3 C 8,6 C 0,0 UV-I 0,0 C 56 % 90 % 0 % 1026,4 hPa 0,0 l/m 1,0 km/h (0 Bft) 0,00 h 1,6 km/h (1 Bft)
13.10.2009 00:00 17,0 C 8,0 C 0,0 UV-I 0,0 C 57 % 91 % 0 % 1026,3 hPa 0,0 l/m 0,3 km/h (0 Bft) 0,00 h 0,7 km/h (0 Bft)
13.10.2009 01:00 16,9 C 7,8 C 0,0 UV-I 0,0 C 57 % 92 % 0 % 1026,4 hPa 0,0 l/m 0,8 km/h (0 Bft) 0,00 h 1,1 km/h (0 Bft)
13.10.2009 02:00 16,8 C 7,9 C 0,0 UV-I 0,0 C 57 % 92 % 0 % 1026,7 hPa 0,0 l/m 1,5 km/h (1 Bft) 0,00 h 3,1 km/h (1 Bft)
13.10.2009 03:00 16,7 C 7,7 C 0,0 UV-I 0,0 C 56 % 91 % 0 % 1026,5 hPa 0,0 l/m 0,5 km/h (0 Bft) 0,00 h 0,9 km/h (0 Bft)
13.10.2009 04:00 16,5 C 7,0 C 0,0 UV-I 0,0 C 56 % 91 % 0 % 1026,5 hPa 0,0 l/m 0,1 km/h (0 Bft) 0,00 h 0,5 km/h (0 Bft)
13.10.2009 05:00 16,4 C 6,6 C 0,0 UV-I 0,0 C 56 % 92 % 0 % 1026,3 hPa 0,0 l/m 0,2 km/h (0 Bft) 0,00 h 0,3 km/h (0 Bft)
13.10.2009 06:00 16,4 C 6,6 C 0,0 UV-I 0,0 C 56 % 92 % 0 % 1026,5 hPa 0,0 l/m 0,2 km/h (0 Bft) 0,00 h 0,4 km/h (0 Bft)
13.10.2009 07:00 16,2 C 6,4 C 0,0 UV-I 0,0 C 55 % 92 % 0 % 1026,9 hPa 0,0 l/m 0,2 km/h (0 Bft) 0,00 h 0,4 km/h (0 Bft)
13.10.2009 08:00 16,1 C 6,0 C 0,1 UV-I 0,0 C 55 % 93 % 0 % 1027,3 hPa 0,0 l/m 0,8 km/h (0 Bft) 0,00 h 1,6 km/h (1 Bft)
13.10.2009 09:00 16,2 C 7,1 C 0,4 UV-I 2,5 C 56 % 92 % 45 % 1027,4 hPa 0,0 l/m 1,6 km/h (1 Bft) 0,37 h 3,0 km/h (1 Bft)
13.10.2009 10:00 16,5 C 9,3 C 1,5 UV-I 8,0 C 56 % 87 % 100 % 1027,8 hPa 0,0 l/m 2,7 km/h (1 Bft) 0,87 h 5,4 km/h (1 Bft)
13.10.2009 11:00 17,0 C 11,4 C 2,9 UV-I 5,5 C 55 % 77 % 100 % 1028,2 hPa 0,0 l/m 3,7 km/h (1 Bft) 0,95 h 5,7 km/h (1 Bft)
13.10.2009 12:00 17,4 C 13,1 C 5,2 UV-I 4,8 C 54 % 66 % 88 % 1028,2 hPa 0,0 l/m 5,5 km/h (1 Bft) 0,75 h 7,1 km/h (2 Bft)
13.10.2009 13:00 18,1 C 13,5 C 8,5 UV-I 4,0 C 50 % 59 % 87 % 1028,5 hPa 0,0 l/m 6,2 km/h (2 Bft) 0,70 h 8,0 km/h (2 Bft)
13.10.2009 14:00 19,0 C 14,5 C 2,5 UV-I 5,2 C 47 % 55 % 99 % 1029,6 hPa 0,0 l/m 6,0 km/h (2 Bft) 1,00 h 7,4 km/h (2 Bft)
13.10.2009 15:00 19,6 C 14,1 C 1,8 UV-I 3,0 C 45 % 54 % 73 % 1030,2 hPa 0,0 l/m 6,2 km/h (2 Bft) 0,53 h 9,7 km/h (2 Bft)
13.10.2009 16:00 19,7 C 13,7 C 1,1 UV-I 2,7 C 44 % 55 % 70 % 1028,9 hPa 0,0 l/m 5,4 km/h (1 Bft) 0,57 h 7,5 km/h (2 Bft)
13.10.2009 17:00 19,1 C 13,0 C 0,5 UV-I 0,4 C 45 % 57 % 12 % 1027,7 hPa 0,0 l/m 4,3 km/h (1 Bft) 0,00 h 5,7 km/h (1 Bft)
13.10.2009 18:00 18,6 C 12,3 C 0,0 UV-I 0,0 C 45 % 60 % 0 % 1027,8 hPa 0,0 l/m 4,2 km/h (1 Bft) 0,00 h 5,6 km/h (1 Bft)
13.10.2009 19:00 18,3 C 11,0 C 0,0 UV-I 0,0 C 47 % 69 % 0 % 1028,4 hPa 0,0 l/m 2,6 km/h (1 Bft) 0,00 h 3,6 km/h (1 Bft)
13.10.2009 20:00 17,9 C 10,1 C 0,0 UV-I 0,0 C 48 % 73 % 0 % 1028,8 hPa 0,0 l/m 2,1 km/h (1 Bft) 0,00 h 2,9 km/h (1 Bft)
13.10.2009 21:00 17,7 C 9,2 C 0,0 UV-I 0,0 C 49 % 76 % 0 % 1029,1 hPa 0,0 l/m 2,0 km/h (1 Bft) 0,00 h 2,5 km/h (1 Bft)
13.10.2009 22:00 17,6 C 7,7 C 0,0 UV-I 0,0 C 50 % 79 % 0 % 1029,4 hPa 0,0 l/m 0,2 km/h (0 Bft) 0,00 h 0,6 km/h (0 Bft)
13.10.2009 23:00 17,3 C 6,4 C 0,0 UV-I 0,0 C 49 % 80 % 0 % 1029,9 hPa 0,0 l/m 0,4 km/h (0 Bft) 0,00 h 0,6 km/h (0 Bft)
14.10.2009 00:00 17,0 C 5,1 C 0,0 UV-I 0,0 C 48 % 81 % 0 % 1029,8 hPa 0,0 l/m 0,0 km/h (0 Bft) 0,00 h 0,0 km/h (0 Bft)
14.10.2009 01:00 16,5 C 3,7 C 0,0 UV-I 0,0 C 47 % 83 % 0 % 1029,9 hPa 0,0 l/m 0,0 km/h (0 Bft) 0,00 h 0,0 km/h (0 Bft)
14.10.2009 02:00 16,1 C 2,6 C 0,0 UV-I 0,0 C 47 % 86 % 0 % 1029,8 hPa 0,0 l/m 0,0 km/h (0 Bft) 0,00 h 0,0 km/h (0 Bft)
14.10.2009 03:00 15,7 C 1,8 C 0,0 UV-I 0,0 C 47 % 88 % 0 % 1030,0 hPa 0,0 l/m 0,0 km/h (0 Bft) 0,00 h 0,0 km/h (0 Bft)
14.10.2009 04:00 15,6 C 1,4 C 0,0 UV-I 0,0 C 47 % 89 % 0 % 1029,8 hPa 0,0 l/m 0,0 km/h (0 Bft) 0,00 h 0,0 km/h (0 Bft)
14.10.2009 05:00 15,5 C 1,3 C 0,0 UV-I 0,0 C 47 % 91 % 0 % 1030,1 hPa 0,0 l/m 0,0 km/h (0 Bft) 0,00 h 0,0 km/h (0 Bft)
14.10.2009 06:00 15,2 C 0,9 C 0,0 UV-I 0,0 C 47 % 91 % 0 % 1030,4 hPa 0,0 l/m 0,0 km/h (0 Bft) 0,00 h 0,0 km/h (0 Bft)
14.10.2009 07:00 14,9 C 0,6 C 0,0 UV-I 0,0 C 47 % 91 % 0 % 1030,4 hPa 0,0 l/m 0,0 km/h (0 Bft) 0,00 h 0,0 km/h (0 Bft)
14.10.2009 08:00 14,6 C 0,4 C 0,2 UV-I 0,0 C 47 % 91 % 0 % 1030,5 hPa 0,0 l/m 0,0 km/h (0 Bft) 0,00 h 0,1 km/h (0 Bft)
14.10.2009 09:00 14,7 C 1,1 C 0,7 UV-I 2,7 C 47 % 93 % 44 % 1030,7 hPa 0,0 l/m 0,4 km/h (0 Bft) 0,43 h 1,1 km/h (0 Bft)
14.10.2009 10:00 15,0 C 3,3 C 1,8 UV-I 9,3 C 48 % 93 % 100 % 1031,3 hPa 0,0 l/m 1,9 km/h (1 Bft) 0,93 h 3,1 km/h (1 Bft)
14.10.2009 11:00 15,3 C 6,1 C 2,4 UV-I 8,7 C 48 % 84 % 100 % 1031,7 hPa 0,0 l/m 2,6 km/h (1 Bft) 0,97 h 3,9 km/h (1 Bft)
14.10.2009 12:00 15,9 C 8,0 C 5,7 UV-I 6,9 C 48 % 71 % 100 % 1032,3 hPa 0,0 l/m 3,2 km/h (1 Bft) 0,87 h 4,1 km/h (1 Bft)
14.10.2009 13:00 17,1 C 9,6 C 5,8 UV-I 5,9 C 45 % 60 % 96 % 1032,4 hPa 0,0 l/m 3,4 km/h (1 Bft) 0,63 h 5,4 km/h (1 Bft)
14.10.2009 14:00 18,0 C 9,5 C 2,2 UV-I 3,9 C 42 % 55 % 87 % 1033,6 hPa 0,0 l/m 4,4 km/h (1 Bft) 0,50 h 6,7 km/h (2 Bft)
14.10.2009 15:00 19,0 C 9,7 C 1,8 UV-I 4,6 C 40 % 54 % 99 % 1035,8 hPa 0,0 l/m 4,0 km/h (1 Bft) 0,93 h 5,8 km/h (2 Bft)
14.10.2009 16:00 18,8 C 9,1 C 1,3 UV-I 2,8 C 39 % 54 % 73 % 1032,8 hPa 0,0 l/m 4,5 km/h (1 Bft) 0,57 h 5,9 km/h (2 Bft)
14.10.2009 17:00 17,8 C 8,5 C 0,6 UV-I 0,2 C 39 % 57 % 7 % 1031,3 hPa 0,0 l/m 3,2 km/h (1 Bft) 0,00 h 4,5 km/h (1 Bft)
14.10.2009 18:00 17,1 C 7,5 C 0,0 UV-I 0,0 C 40 % 63 % 0 % 1031,1 hPa 0,0 l/m 1,0 km/h (0 Bft) 0,00 h 1,5 km/h (1 Bft)
14.10.2009 19:00 16,4 C 5,9 C 0,0 UV-I 0,0 C 41 % 71 % 0 % 1031,2 hPa 0,0 l/m 0,0 km/h (0 Bft) 0,00 h 0,0 km/h (0 Bft)
14.10.2009 20:00 15,7 C 4,2 C 0,0 UV-I 0,0 C 43 % 77 % 0 % 1030,9 hPa 0,0 l/m 0,0 km/h (0 Bft) 0,00 h 0,0 km/h (0 Bft)
14.10.2009 21:00 15,2 C 2,9 C 0,0 UV-I 0,0 C 44 % 81 % 0 % 1030,6 hPa 0,0 l/m 0,0 km/h (0 Bft) 0,00 h 0,0 km/h (0 Bft)
14.10.2009 22:00 14,9 C 2,2 C 0,0 UV-I 0,0 C 45 % 84 % 0 % 1030,2 hPa 0,0 l/m 0,1 km/h (0 Bft) 0,00 h 0,3 km/h (0 Bft)
14.10.2009 23:00 15,0 C 2,2 C 0,0 UV-I 0,0 C 45 % 85 % 0 % 1030,5 hPa 0,0 l/m 0,1 km/h (0 Bft) 0,00 h 0,1 km/h (0 Bft)
15.10.2009 00:00 14,7 C 1,4 C 0,0 UV-I 0,0 C 45 % 86 % 0 % 1030,4 hPa 0,0 l/m 0,0 km/h (0 Bft) 0,00 h 0,0 km/h (0 Bft)
15.10.2009 01:00 14,4 C 0,8 C 0,0 UV-I 0,0 C 45 % 87 % 0 % 1030,3 hPa 0,0 l/m 0,0 km/h (0 Bft) 0,00 h 0,0 km/h (0 Bft)
15.10.2009 02:00 14,3 C 0,4 C 0,0 UV-I 0,0 C 46 % 89 % 0 % 1030,0 hPa 0,0 l/m 0,0 km/h (0 Bft) 0,00 h 0,0 km/h (0 Bft)
15.10.2009 03:00 14,1 C 0,0 C 0,0 UV-I 0,0 C 46 % 89 % 0 % 1029,8 hPa 0,0 l/m 0,0 km/h (0 Bft) 0,00 h 0,0 km/h (0 Bft)
15.10.2009 04:00 13,9 C -0,2 C 0,0 UV-I 0,0 C 46 % 90 % 0 % 1029,4 hPa 0,0 l/m 0,0 km/h (0 Bft) 0,00 h 0,0 km/h (0 Bft)
15.10.2009 05:00 13,6 C -0,3 C 0,0 UV-I 0,0 C 46 % 91 % 0 % 1029,2 hPa 0,0 l/m 0,1 km/h (0 Bft) 0,00 h 0,2 km/h (0 Bft)
15.10.2009 06:00 13,6 C -0,2 C 0,0 UV-I 0,0 C 49 % 91 % 0 % 1029,0 hPa 0,0 l/m 0,1 km/h (0 Bft) 0,00 h 0,3 km/h (0 Bft)
15.10.2009 07:00 13,5 C -0,3 C 0,0 UV-I 0,0 C 47 % 92 % 0 % 1028,9 hPa 0,0 l/m 0,0 km/h (0 Bft) 0,00 h 0,0 km/h (0 Bft)
15.10.2009 08:00 13,3 C -0,5 C 0,1 UV-I 0,0 C 47 % 92 % 0 % 1028,9 hPa 0,0 l/m 0,0 km/h (0 Bft) 0,00 h 0,0 km/h (0 Bft)
15.10.2009 09:00 13,3 C 0,1 C 0,5 UV-I 2,5 C 47 % 93 % 40 % 1029,3 hPa 0,0 l/m 0,1 km/h (0 Bft) 0,37 h 0,2 km/h (0 Bft)
15.10.2009 10:00 13,5 C 2,2 C 1,3 UV-I 9,9 C 47 % 93 % 100 % 1029,8 hPa 0,0 l/m 1,3 km/h (1 Bft) 0,93 h 3,0 km/h (1 Bft)
15.10.2009 11:00 13,8 C 5,1 C 2,8 UV-I 8,9 C 48 % 85 % 100 % 1029,4 hPa 0,0 l/m 3,2 km/h (1 Bft) 0,90 h 4,8 km/h (1 Bft)
15.10.2009 12:00 14,5 C 7,4 C 6,8 UV-I 7,3 C 47 % 72 % 100 % 1029,2 hPa 0,0 l/m 5,9 km/h (2 Bft) 0,93 h 8,6 km/h (2 Bft)
15.10.2009 13:00 15,7 C 9,0 C 9,5 UV-I 6,2 C 45 % 64 % 100 % 1029,1 hPa 0,0 l/m 5,5 km/h (1 Bft) 0,67 h 6,6 km/h (2 Bft)
15.10.2009 14:00 17,1 C 10,7 C 6,9 UV-I 5,8 C 42 % 57 % 100 % 1030,4 hPa 0,0 l/m 5,7 km/h (1 Bft) 0,80 h 8,0 km/h (2 Bft)
15.10.2009 15:00 18,2 C 11,1 C 2,3 UV-I 5,1 C 39 % 55 % 100 % 1032,4 hPa 0,0 l/m 6,4 km/h (2 Bft) 0,90 h 9,0 km/h (2 Bft)
15.10.2009 16:00 17,9 C 10,7 C 1,3 UV-I 3,1 C 38 % 56 % 77 % 1029,2 hPa 0,0 l/m 6,1 km/h (2 Bft) 0,50 h 8,1 km/h (2 Bft)
15.10.2009 17:00 17,1 C 10,4 C 0,6 UV-I 0,3 C 40 % 58 % 8 % 1027,5 hPa 0,0 l/m 5,5 km/h (1 Bft) 0,00 h 7,7 km/h (2 Bft)
15.10.2009 18:00 16,7 C 9,6 C 0,0 UV-I 0,0 C 42 % 63 % 0 % 1027,3 hPa 0,0 l/m 2,4 km/h (1 Bft) 0,00 h 3,7 km/h (1 Bft)
15.10.2009 19:00 16,0 C 7,7 C 0,0 UV-I 0,0 C 43 % 71 % 0 % 1027,4 hPa 0,0 l/m 0,0 km/h (0 Bft) 0,00 h 0,1 km/h (0 Bft)
15.10.2009 20:00 15,4 C 6,0 C 0,0 UV-I 0,0 C 45 % 76 % 0 % 1027,3 hPa 0,0 l/m 0,0 km/h (0 Bft) 0,00 h 0,0 km/h (0 Bft)
15.10.2009 21:00 15,0 C 4,6 C 0,0 UV-I 0,0 C 46 % 80 % 0 % 1027,3 hPa 0,0 l/m 0,0 km/h (0 Bft) 0,00 h 0,0 km/h (0 Bft)
15.10.2009 22:00 14,8 C 3,6 C 0,0 UV-I 0,0 C 46 % 84 % 0 % 1027,2 hPa 0,0 l/m 0,0 km/h (0 Bft) 0,00 h 0,0 km/h (0 Bft)
15.10.2009 23:00 14,6 C 2,9 C 0,0 UV-I 0,0 C 46 % 86 % 0 % 1026,8 hPa 0,0 l/m 0,0 km/h (0 Bft) 0,00 h 0,0 km/h (0 Bft)
16.10.2009 00:00 14,4 C 2,5 C 0,0 UV-I 0,0 C 47 % 88 % 0 % 1026,6 hPa 0,0 l/m 0,0 km/h (0 Bft) 0,00 h 0,0 km/h (0 Bft)
16.10.2009 01:00 14,3 C 2,2 C 0,0 UV-I 0,0 C 47 % 89 % 0 % 1026,3 hPa 0,0 l/m 0,0 km/h (0 Bft) 0,00 h 0,0 km/h (0 Bft)
16.10.2009 02:00 14,3 C 3,0 C 0,0 UV-I 0,3 C 49 % 91 % 0 % 1026,3 hPa 0,0 l/m 0,0 km/h (0 Bft) 0,00 h 0,2 km/h (0 Bft)
16.10.2009 03:00 14,3 C 4,0 C 0,0 UV-I 0,1 C 50 % 92 % 0 % 1025,5 hPa 0,0 l/m 0,0 km/h (0 Bft) 0,00 h 0,1 km/h (0 Bft)
16.10.2009 04:00 14,4 C 4,9 C 0,0 UV-I 0,2 C 51 % 93 % 0 % 1025,0 hPa 0,0 l/m 0,1 km/h (0 Bft) 0,00 h 0,4 km/h (0 Bft)
16.10.2009 05:00 14,3 C 5,9 C 0,0 UV-I 0,2 C 52 % 92 % 0 % 1024,3 hPa 0,0 l/m 0,8 km/h (0 Bft) 0,00 h 2,1 km/h (1 Bft)
16.10.2009 06:00 14,5 C 6,7 C 0,0 UV-I 0,0 C 53 % 92 % 0 % 1023,3 hPa 0,1 l/m 1,2 km/h (1 Bft) 0,00 h 1,9 km/h (1 Bft)
16.10.2009 07:00 14,6 C 7,3 C 0,0 UV-I 0,0 C 56 % 93 % 0 % 1022,6 hPa 0,7 l/m 2,8 km/h (1 Bft) 0,00 h 5,3 km/h (1 Bft)
16.10.2009 08:00 14,6 C 7,8 C 0,0 UV-I 0,0 C 57 % 94 % 0 % 1022,0 hPa 0,3 l/m 3,9 km/h (1 Bft) 0,00 h 5,3 km/h (1 Bft)
16.10.2009 09:00 14,7 C 8,8 C 0,0 UV-I 0,0 C 59 % 95 % 0 % 1021,6 hPa 0,0 l/m 4,4 km/h (1 Bft) 0,00 h 6,5 km/h (2 Bft)
16.10.2009 10:00 15,0 C 9,9 C 0,1 UV-I 0,0 C 61 % 96 % 0 % 1021,1 hPa 0,8 l/m 4,9 km/h (1 Bft) 0,00 h 6,6 km/h (2 Bft)
16.10.2009 11:00 15,6 C 11,3 C 2,2 UV-I 1,7 C 60 % 91 % 49 % 1021,3 hPa 0,0 l/m 8,9 km/h (2 Bft) 0,23 h 12,7 km/h (3 Bft)
16.10.2009 12:00 16,1 C 11,9 C 1,3 UV-I 0,5 C 58 % 76 % 14 % 1021,8 hPa 0,0 l/m 9,5 km/h (2 Bft) 0,00 h 14,1 km/h (3 Bft)
16.10.2009 13:00 16,6 C 12,6 C 4,4 UV-I 2,5 C 54 % 68 % 69 % 1021,2 hPa 0,0 l/m 8,7 km/h (2 Bft) 0,27 h 13,5 km/h (3 Bft)
16.10.2009 14:00 17,0 C 12,3 C 2,7 UV-I 1,0 C 52 % 68 % 29 % 1021,6 hPa 0,0 l/m 8,2 km/h (2 Bft) 0,00 h 13,0 km/h (3 Bft)
16.10.2009 15:00 17,2 C 12,2 C 1,3 UV-I 1,1 C 51 % 67 % 32 % 1022,2 hPa 0,1 l/m 7,8 km/h (2 Bft) 0,00 h 11,0 km/h (2 Bft)
16.10.2009 16:00 17,2 C 12,3 C 1,0 UV-I 1,0 C 50 % 64 % 28 % 1020,8 hPa 0,7 l/m 7,0 km/h (2 Bft) 0,00 h 8,7 km/h (2 Bft)
16.10.2009 17:00 16,8 C 11,3 C 0,3 UV-I 0,0 C 49 % 68 % 0 % 1020,9 hPa 0,0 l/m 8,7 km/h (2 Bft) 0,00 h 11,1 km/h (2 Bft)
16.10.2009 18:00 16,5 C 10,3 C 0,0 UV-I 0,0 C 49 % 70 % 0 % 1020,8 hPa 0,0 l/m 7,1 km/h (2 Bft) 0,00 h 10,1 km/h (2 Bft)
16.10.2009 19:00 16,2 C 10,2 C 0,0 UV-I 0,0 C 49 % 70 % 0 % 1021,1 hPa 0,0 l/m 7,2 km/h (2 Bft) 0,00 h 9,4 km/h (2 Bft)
16.10.2009 20:00 16,0 C 9,8 C 0,0 UV-I 0,0 C 50 % 73 % 0 % 1020,9 hPa 0,0 l/m 6,8 km/h (2 Bft) 0,00 h 9,6 km/h (2 Bft)
16.10.2009 21:00 16,0 C 9,5 C 0,0 UV-I 0,0 C 51 % 77 % 0 % 1020,8 hPa 0,0 l/m 5,6 km/h (1 Bft) 0,00 h 8,4 km/h (2 Bft)
16.10.2009 22:00 15,9 C 9,5 C 0,0 UV-I 0,0 C 52 % 79 % 0 % 1021,1 hPa 0,0 l/m 6,0 km/h (2 Bft) 0,00 h 7,6 km/h (2 Bft)
16.10.2009 23:00 15,9 C 9,2 C 0,0 UV-I 0,0 C 52 % 81 % 0 % 1021,3 hPa 0,0 l/m 3,3 km/h (1 Bft) 0,00 h 4,8 km/h (1 Bft)
17.10.2009 00:00 15,8 C 8,4 C 0,0 UV-I 0,0 C 53 % 84 % 0 % 1021,8 hPa 0,0 l/m 2,2 km/h (1 Bft) 0,00 h 3,2 km/h (1 Bft)
17.10.2009 01:00 15,6 C 7,9 C 0,0 UV-I 0,0 C 53 % 86 % 0 % 1022,1 hPa 0,0 l/m 2,0 km/h (1 Bft) 0,00 h 2,8 km/h (1 Bft)
17.10.2009 02:00 15,4 C 7,8 C 0,0 UV-I 0,0 C 54 % 87 % 0 % 1021,9 hPa 0,0 l/m 3,7 km/h (1 Bft) 0,00 h 5,3 km/h (1 Bft)
17.10.2009 03:00 15,4 C 7,4 C 0,0 UV-I 0,0 C 54 % 87 % 0 % 1021,8 hPa 0,0 l/m 2,0 km/h (1 Bft) 0,00 h 2,7 km/h (1 Bft)
17.10.2009 04:00 15,3 C 6,9 C 0,0 UV-I 0,0 C 54 % 89 % 0 % 1021,6 hPa 0,0 l/m 1,1 km/h (1 Bft) 0,00 h 1,3 km/h (1 Bft)
17.10.2009 05:00 15,1 C 6,5 C 0,0 UV-I 0,0 C 54 % 90 % 0 % 1021,9 hPa 0,0 l/m 1,3 km/h (1 Bft) 0,00 h 2,4 km/h (1 Bft)
17.10.2009 06:00 15,1 C 6,9 C 0,0 UV-I 0,0 C 55 % 90 % 0 % 1021,7 hPa 0,0 l/m 1,8 km/h (1 Bft) 0,00 h 3,3 km/h (1 Bft)
17.10.2009 07:00 15,1 C 6,7 C 0,0 UV-I 0,0 C 54 % 89 % 0 % 1021,5 hPa 0,0 l/m 1,1 km/h (1 Bft) 0,00 h 1,3 km/h (1 Bft)
17.10.2009 08:00 14,6 C 6,5 C 0,0 UV-I 0,0 C 55 % 91 % 0 % 1022,1 hPa 0,0 l/m 1,5 km/h (1 Bft) 0,00 h 2,3 km/h (1 Bft)
17.10.2009 09:00 14,9 C 7,4 C 0,3 UV-I 0,8 C 56 % 90 % 24 % 1022,2 hPa 0,0 l/m 3,0 km/h (1 Bft) 0,10 h 4,7 km/h (1 Bft)
17.10.2009 10:00 15,4 C 8,7 C 1,0 UV-I 4,3 C 55 % 85 % 87 % 1022,6 hPa 0,0 l/m 3,7 km/h (1 Bft) 0,63 h 5,4 km/h (1 Bft)
17.10.2009 11:00 15,8 C 10,4 C 2,5 UV-I 5,4 C 54 % 78 % 92 % 1022,9 hPa 0,0 l/m 4,5 km/h (1 Bft) 0,77 h 6,8 km/h (2 Bft)
17.10.2009 12:00 16,2 C 11,9 C 3,6 UV-I 4,2 C 53 % 68 % 92 % 1022,8 hPa 0,0 l/m 5,9 km/h (2 Bft) 0,67 h 8,4 km/h (2 Bft)
17.10.2009 13:00 16,8 C 12,7 C 6,5 UV-I 4,3 C 50 % 61 % 97 % 1022,7 hPa 0,0 l/m 8,4 km/h (2 Bft) 0,60 h 11,8 km/h (2 Bft)
17.10.2009 14:00 17,6 C 13,2 C 3,4 UV-I 3,5 C 46 % 56 % 81 % 1023,9 hPa 0,0 l/m 7,6 km/h (2 Bft) 0,43 h 11,4 km/h (2 Bft)
17.10.2009 15:00 18,0 C 12,8 C 1,6 UV-I 1,8 C 45 % 56 % 50 % 1024,0 hPa 0,0 l/m 5,3 km/h (1 Bft) 0,23 h 5,8 km/h (2 Bft)
17.10.2009 16:00 17,8 C 12,1 C 0,9 UV-I 1,0 C 45 % 61 % 25 % 1023,4 hPa 0,0 l/m 4,0 km/h (1 Bft) 0,13 h 5,3 km/h (1 Bft)
17.10.2009 17:00 17,4 C 11,5 C 0,4 UV-I 0,3 C 45 % 58 % 7 % 1022,7 hPa 0,0 l/m 4,6 km/h (1 Bft) 0,00 h 4,7 km/h (1 Bft)
17.10.2009 18:00 16,8 C 10,3 C 0,0 UV-I 0,0 C 44 % 64 % 0 % 1022,8 hPa 0,0 l/m 1,2 km/h (1 Bft) 0,00 h 1,7 km/h (1 Bft)
17.10.2009 19:00 16,2 C 9,1 C 0,0 UV-I 0,0 C 45 % 67 % 0 % 1023,2 hPa 0,0 l/m 1,5 km/h (1 Bft) 0,00 h 2,2 km/h (1 Bft)
17.10.2009 20:00 16,2 C 7,9 C 0,0 UV-I 0,0 C 46 % 72 % 0 % 1023,3 hPa 0,0 l/m 1,1 km/h (0 Bft) 0,00 h 1,6 km/h (1 Bft)
17.10.2009 21:00 15,6 C 6,7 C 0,0 UV-I 0,0 C 47 % 77 % 0 % 1023,7 hPa 0,0 l/m 0,0 km/h (0 Bft) 0,00 h 0,1 km/h (0 Bft)
17.10.2009 22:00 14,7 C 5,4 C 0,0 UV-I 0,0 C 48 % 81 % 0 % 1023,5 hPa 0,0 l/m 0,0 km/h (0 Bft) 0,00 h 0,0 km/h (0 Bft)
17.10.2009 23:00 14,2 C 4,3 C 0,0 UV-I 0,0 C 49 % 84 % 0 % 1023,6 hPa 0,0 l/m 0,0 km/h (0 Bft) 0,00 h 0,0 km/h (0 Bft)
18.10.2009 00:00 13,9 C 3,5 C 0,0 UV-I 0,0 C 50 % 86 % 0 % 1023,7 hPa 0,0 l/m 0,0 km/h (0 Bft) 0,00 h 0,0 km/h (0 Bft)
18.10.2009 01:00 14,0 C 2,8 C 0,0 UV-I 0,0 C 50 % 88 % 0 % 1023,6 hPa 0,0 l/m 0,0 km/h (0 Bft) 0,00 h 0,0 km/h (0 Bft)
18.10.2009 02:00 14,1 C 2,3 C 0,0 UV-I 0,0 C 50 % 89 % 0 % 1023,5 hPa 0,0 l/m 0,0 km/h (0 Bft) 0,00 h 0,0 km/h (0 Bft)
18.10.2009 03:00 14,0 C 2,0 C 0,0 UV-I 0,0 C 50 % 91 % 0 % 1023,4 hPa 0,0 l/m 0,0 km/h (0 Bft) 0,00 h 0,0 km/h (0 Bft)
18.10.2009 04:00 14,0 C 1,6 C 0,0 UV-I 0,0 C 50 % 91 % 0 % 1023,3 hPa 0,0 l/m 0,0 km/h (0 Bft) 0,00 h 0,0 km/h (0 Bft)
18.10.2009 05:00 13,8 C 1,1 C 0,0 UV-I 0,0 C 50 % 91 % 0 % 1023,3 hPa 0,0 l/m 0,0 km/h (0 Bft) 0,00 h 0,0 km/h (0 Bft)
18.10.2009 06:00 13,6 C 0,8 C 0,0 UV-I 0,0 C 49 % 91 % 0 % 1023,0 hPa 0,0 l/m 0,0 km/h (0 Bft) 0,00 h 0,0 km/h (0 Bft)
18.10.2009 07:00 13,4 C 1,1 C 0,0 UV-I 0,0 C 50 % 92 % 0 % 1022,9 hPa 0,0 l/m 0,0 km/h (0 Bft) 0,00 h 0,0 km/h (0 Bft)
18.10.2009 08:00 13,5 C 1,9 C 0,0 UV-I 0,1 C 51 % 93 % 1 % 1023,3 hPa 0,0 l/m 0,0 km/h (0 Bft) 0,00 h 0,0 km/h (0 Bft)
18.10.2009 09:00 13,6 C 2,7 C 0,2 UV-I 0,9 C 56 % 94 % 23 % 1023,3 hPa 0,0 l/m 0,0 km/h (0 Bft) 0,23 h 0,3 km/h (0 Bft)
18.10.2009 10:00 13,7 C 4,6 C 0,8 UV-I 4,8 C 55 % 94 % 99 % 1023,4 hPa 0,0 l/m 0,7 km/h (0 Bft) 0,70 h 1,8 km/h (1 Bft)
18.10.2009 11:00 14,1 C 7,4 C 2,1 UV-I 6,4 C 55 % 92 % 100 % 1023,3 hPa 0,0 l/m 1,4 km/h (1 Bft) 0,80 h 2,7 km/h (1 Bft)
18.10.2009 12:00 14,7 C 9,6 C 3,3 UV-I 4,5 C 55 % 85 % 100 % 1023,4 hPa 0,0 l/m 1,3 km/h (1 Bft) 0,93 h 2,7 km/h (1 Bft)
18.10.2009 13:00 15,7 C 11,1 C 2,7 UV-I 3,8 C 53 % 77 % 80 % 1023,2 hPa 0,0 l/m 1,4 km/h (1 Bft) 0,53 h 2,2 km/h (1 Bft)
18.10.2009 14:00 16,2 C 11,4 C 1,3 UV-I 2,0 C 51 % 73 % 50 % 1023,0 hPa 0,0 l/m 0,7 km/h (0 Bft) 0,33 h 1,5 km/h (1 Bft)
18.10.2009 15:00 16,0 C 11,0 C 0,8 UV-I 0,2 C 50 % 73 % 6 % 1022,6 hPa 0,0 l/m 1,0 km/h (0 Bft) 0,00 h 1,4 km/h (1 Bft)
18.10.2009 16:00 16,0 C 10,9 C 0,7 UV-I 0,7 C 51 % 73 % 21 % 1022,1 hPa 0,0 l/m 0,3 km/h (0 Bft) 0,00 h 0,8 km/h (0 Bft)
18.10.2009 17:00 15,7 C 10,5 C 0,1 UV-I 0,0 C 51 % 74 % 0 % 1021,4 hPa 0,0 l/m 0,1 km/h (0 Bft) 0,00 h 0,2 km/h (0 Bft)
18.10.2009 18:00 15,4 C 9,1 C 0,0 UV-I 0,0 C 53 % 79 % 0 % 1021,1 hPa 0,0 l/m 0,0 km/h (0 Bft) 0,00 h 0,0 km/h (0 Bft)
18.10.2009 19:00 14,9 C 7,5 C 0,0 UV-I 0,0 C 58 % 82 % 0 % 1021,2 hPa 0,0 l/m 0,0 km/h (0 Bft) 0,00 h 0,0 km/h (0 Bft)
18.10.2009 20:00 14,7 C 7,0 C 0,0 UV-I 0,0 C 56 % 85 % 0 % 1021,2 hPa 0,0 l/m 0,4 km/h (0 Bft) 0,00 h 0,9 km/h (0 Bft)
18.10.2009 21:00 14,6 C 7,3 C 0,0 UV-I 0,0 C 55 % 84 % 0 % 1021,1 hPa 0,0 l/m 0,1 km/h (0 Bft) 0,00 h 0,4 km/h (0 Bft)
18.10.2009 22:00 14,6 C 6,7 C 0,0 UV-I 0,0 C 55 % 85 % 0 % 1021,1 hPa 0,0 l/m 0,0 km/h (0 Bft) 0,00 h 0,0 km/h (0 Bft)
18.10.2009 23:00 14,4 C 6,1 C 0,0 UV-I 0,0 C 55 % 87 % 0 % 1021,0 hPa 0,0 l/m 0,1 km/h (0 Bft) 0,00 h 0,1 km/h (0 Bft)
Min-Datum _ 15.10.09 15.10.09 12.10.09 12.10.09 15.10.09 13.10.09 12.10.09 12.10.09 - 12.10.09 - 12.10.09
_ Min-Zeit 08:16 08:08 00:00 00:00 15:46 14:48 00:00 00:00 - 18:08 - 00:00
Minimum _ 13,2 C -0,5 C 0,0 UV-I 0,0 C 37 % 52 % 0 % 1008,1 hPa - 0,0 km/h (0 Bft) - 0,0 km/h (0 Bft)
Max-Datum _ 12.10.09 13.10.09 13.10.09 15.10.09 12.10.09 16.10.09 12.10.09 14.10.09 16.10.09 16.10.09 12.10.09 16.10.09
_ Max-Zeit 15:52 14:42 13:20 10:22 00:00 10:26 09:42 14:56 10:50 12:20 09:40 13:30
Maximum _ 20,4 C 14,9 C 12,8 UV-I 10,9 C 65 % 96 % 100 % 1036,6 hPa 0,8 l/m 12,8 km/h
SW (3 Bft)
0,03 h 32,7 km/h
SW (5 Bft)
Durchschnitt _ 16,1 C 7,5 C 0,9 UV-I 1,3 C 51 % 80 % 24 % 1024,9 hPa #3,0 l/m 2,4 km/h (1 Bft) #29:04 h 3,5 km/h (1 Bft)
© 2012 W. Hausmann